sensor_id;sensor_type;location;lat;lon;timestamp;temperature;humidity
46652;DHT22;32377;52.182;5.398;2023-07-09T00:01:15;23.80;99.90
46652;DHT22;32377;52.182;5.398;2023-07-09T00:03:43;23.80;99.90
46652;DHT22;32377;52.182;5.398;2023-07-09T00:06:09;23.70;99.90
46652;DHT22;32377;52.182;5.398;2023-07-09T00:08:35;23.70;99.90
46652;DHT22;32377;52.182;5.398;2023-07-09T00:11:02;23.60;99.90
46652;DHT22;32377;52.182;5.398;2023-07-09T00:13:28;23.60;99.90
46652;DHT22;32377;52.182;5.398;2023-07-09T00:15:58;23.50;99.90
46652;DHT22;32377;52.182;5.398;2023-07-09T00:18:25;23.40;99.90
46652;DHT22;32377;52.182;5.398;2023-07-09T00:20:50;23.40;99.90
46652;DHT22;32377;52.182;5.398;2023-07-09T00:23:16;23.40;99.90
46652;DHT22;32377;52.182;5.398;2023-07-09T00:25:45;23.40;99.90
46652;DHT22;32377;52.182;5.398;2023-07-09T00:28:15;23.30;99.90
46652;DHT22;32377;52.182;5.398;2023-07-09T00:30:41;23.30;99.90
46652;DHT22;32377;52.182;5.398;2023-07-09T00:33:15;23.30;99.90
46652;DHT22;32377;52.182;5.398;2023-07-09T00:35:45;23.20;99.90
46652;DHT22;32377;52.182;5.398;2023-07-09T00:38:22;23.10;99.90
46652;DHT22;32377;52.182;5.398;2023-07-09T00:41:18;23.10;99.90
46652;DHT22;32377;52.182;5.398;2023-07-09T00:43:46;23.10;99.90
46652;DHT22;32377;52.182;5.398;2023-07-09T00:51:26;23.00;99.90
46652;DHT22;32377;52.182;5.398;2023-07-09T00:53:55;22.90;99.90
46652;DHT22;32377;52.182;5.398;2023-07-09T00:58:53;22.90;99.90
46652;DHT22;32377;52.182;5.398;2023-07-09T01:01:20;22.80;99.90
46652;DHT22;32377;52.182;5.398;2023-07-09T01:03:53;22.90;99.90
46652;DHT22;32377;52.182;5.398;2023-07-09T01:06:41;22.90;99.90
46652;DHT22;32377;52.182;5.398;2023-07-09T01:09:09;22.90;99.90
46652;DHT22;32377;52.182;5.398;2023-07-09T01:11:35;22.90;99.90
46652;DHT22;32377;52.182;5.398;2023-07-09T01:14:04;22.90;99.90
46652;DHT22;32377;52.182;5.398;2023-07-09T01:16:44;22.80;99.90
46652;DHT22;32377;52.182;5.398;2023-07-09T01:19:12;22.70;99.90
46652;DHT22;32377;52.182;5.398;2023-07-09T01:21:39;22.70;99.90
46652;DHT22;32377;52.182;5.398;2023-07-09T01:24:45;22.70;99.90
46652;DHT22;32377;52.182;5.398;2023-07-09T01:27:02;22.70;99.90
46652;DHT22;32377;52.182;5.398;2023-07-09T01:29:33;22.70;99.90
46652;DHT22;32377;52.182;5.398;2023-07-09T01:32:00;22.70;99.90
46652;DHT22;32377;52.182;5.398;2023-07-09T01:34:25;22.70;99.90
46652;DHT22;32377;52.182;5.398;2023-07-09T01:36:51;22.70;99.90
46652;DHT22;32377;52.182;5.398;2023-07-09T01:39:17;22.80;99.90
46652;DHT22;32377;52.182;5.398;2023-07-09T01:41:44;22.80;99.90
46652;DHT22;32377;52.182;5.398;2023-07-09T01:44:11;22.80;99.90
46652;DHT22;32377;52.182;5.398;2023-07-09T01:46:38;22.80;99.90
46652;DHT22;32377;52.182;5.398;2023-07-09T01:49:03;22.80;99.90
46652;DHT22;32377;52.182;5.398;2023-07-09T01:51:33;22.80;99.90
46652;DHT22;32377;52.182;5.398;2023-07-09T01:53:58;22.70;99.90
46652;DHT22;32377;52.182;5.398;2023-07-09T01:56:25;22.70;99.90
46652;DHT22;32377;52.182;5.398;2023-07-09T01:58:51;22.70;99.90
46652;DHT22;32377;52.182;5.398;2023-07-09T02:01:16;22.60;99.90
46652;DHT22;32377;52.182;5.398;2023-07-09T02:03:45;22.60;99.90
46652;DHT22;32377;52.182;5.398;2023-07-09T02:06:11;22.60;99.90
46652;DHT22;32377;52.182;5.398;2023-07-09T02:08:38;22.50;99.90
46652;DHT22;32377;52.182;5.398;2023-07-09T02:11:04;22.50;99.90
46652;DHT22;32377;52.182;5.398;2023-07-09T02:13:29;22.50;99.90
46652;DHT22;32377;52.182;5.398;2023-07-09T02:15:55;22.40;99.90
46652;DHT22;32377;52.182;5.398;2023-07-09T02:18:21;22.40;99.90
46652;DHT22;32377;52.182;5.398;2023-07-09T02:20:46;22.30;99.90
46652;DHT22;32377;52.182;5.398;2023-07-09T02:23:12;22.30;99.90
46652;DHT22;32377;52.182;5.398;2023-07-09T02:25:38;22.30;99.90
46652;DHT22;32377;52.182;5.398;2023-07-09T02:28:03;22.20;99.90
46652;DHT22;32377;52.182;5.398;2023-07-09T02:30:29;22.30;99.90
46652;DHT22;32377;52.182;5.398;2023-07-09T02:32:55;22.30;99.90
46652;DHT22;32377;52.182;5.398;2023-07-09T02:35:22;22.30;99.90
46652;DHT22;32377;52.182;5.398;2023-07-09T02:37:47;22.20;99.90
46652;DHT22;32377;52.182;5.398;2023-07-09T02:40:14;22.20;99.90
46652;DHT22;32377;52.182;5.398;2023-07-09T02:42:40;22.20;99.90
46652;DHT22;32377;52.182;5.398;2023-07-09T02:45:06;22.20;99.90
46652;DHT22;32377;52.182;5.398;2023-07-09T02:47:32;22.10;99.90
46652;DHT22;32377;52.182;5.398;2023-07-09T02:49:57;22.10;99.90
46652;DHT22;32377;52.182;5.398;2023-07-09T02:52:23;22.10;99.90
46652;DHT22;32377;52.182;5.398;2023-07-09T02:54:49;22.10;99.90
46652;DHT22;32377;52.182;5.398;2023-07-09T02:57:14;22.00;99.90
46652;DHT22;32377;52.182;5.398;2023-07-09T02:59:40;21.90;99.90
46652;DHT22;32377;52.182;5.398;2023-07-09T03:02:05;21.90;99.90
46652;DHT22;32377;52.182;5.398;2023-07-09T03:04:31;21.90;99.90
46652;DHT22;32377;52.182;5.398;2023-07-09T03:06:57;21.80;99.90
46652;DHT22;32377;52.182;5.398;2023-07-09T03:09:23;21.80;99.90
46652;DHT22;32377;52.182;5.398;2023-07-09T03:11:49;21.70;99.90
46652;DHT22;32377;52.182;5.398;2023-07-09T03:14:15;21.70;99.90
46652;DHT22;32377;52.182;5.398;2023-07-09T03:16:40;21.70;99.90
46652;DHT22;32377;52.182;5.398;2023-07-09T03:19:06;21.70;99.90
46652;DHT22;32377;52.182;5.398;2023-07-09T03:21:32;21.70;99.90
46652;DHT22;32377;52.182;5.398;2023-07-09T03:23:58;21.70;99.90
46652;DHT22;32377;52.182;5.398;2023-07-09T03:26:23;21.70;99.90
46652;DHT22;32377;52.182;5.398;2023-07-09T03:28:51;21.70;99.90
46652;DHT22;32377;52.182;5.398;2023-07-09T03:31:17;21.60;99.90
46652;DHT22;32377;52.182;5.398;2023-07-09T03:33:42;21.70;99.90
46652;DHT22;32377;52.182;5.398;2023-07-09T03:36:08;21.70;99.90
46652;DHT22;32377;52.182;5.398;2023-07-09T03:38:34;21.80;99.90
46652;DHT22;32377;52.182;5.398;2023-07-09T03:41:00;21.80;99.90
46652;DHT22;32377;52.182;5.398;2023-07-09T03:43:26;21.80;99.90
46652;DHT22;32377;52.182;5.398;2023-07-09T03:45:52;21.80;99.90
46652;DHT22;32377;52.182;5.398;2023-07-09T03:48:18;21.80;99.90
46652;DHT22;32377;52.182;5.398;2023-07-09T03:50:46;21.80;99.90
46652;DHT22;32377;52.182;5.398;2023-07-09T03:53:12;21.90;99.90
46652;DHT22;32377;52.182;5.398;2023-07-09T03:58:48;21.90;99.90
46652;DHT22;32377;52.182;5.398;2023-07-09T04:01:13;21.90;99.90
46652;DHT22;32377;52.182;5.398;2023-07-09T04:03:41;21.90;99.90
46652;DHT22;32377;52.182;5.398;2023-07-09T04:06:07;22.00;99.90
46652;DHT22;32377;52.182;5.398;2023-07-09T04:08:32;22.00;99.90
46652;DHT22;32377;52.182;5.398;2023-07-09T04:11:02;22.00;99.90
46652;DHT22;32377;52.182;5.398;2023-07-09T04:13:28;22.10;99.90
46652;DHT22;32377;52.182;5.398;2023-07-09T04:15:55;22.10;99.90
46652;DHT22;32377;52.182;5.398;2023-07-09T04:18:20;22.10;99.90
46652;DHT22;32377;52.182;5.398;2023-07-09T04:20:49;22.20;99.90
46652;DHT22;32377;52.182;5.398;2023-07-09T04:23:16;22.30;99.90
46652;DHT22;32377;52.182;5.398;2023-07-09T04:25:41;22.30;99.90
46652;DHT22;32377;52.182;5.398;2023-07-09T04:28:07;22.30;99.90
46652;DHT22;32377;52.182;5.398;2023-07-09T04:30:33;22.40;99.90
46652;DHT22;32377;52.182;5.398;2023-07-09T04:32:59;22.40;99.90
46652;DHT22;32377;52.182;5.398;2023-07-09T04:35:24;22.50;99.90
46652;DHT22;32377;52.182;5.398;2023-07-09T04:37:50;22.50;99.90
46652;DHT22;32377;52.182;5.398;2023-07-09T04:40:18;22.50;99.90
46652;DHT22;32377;52.182;5.398;2023-07-09T04:42:43;22.60;99.90
46652;DHT22;32377;52.182;5.398;2023-07-09T04:45:11;22.60;99.90
46652;DHT22;32377;52.182;5.398;2023-07-09T04:47:37;22.60;99.90
46652;DHT22;32377;52.182;5.398;2023-07-09T04:50:05;22.70;99.90
46652;DHT22;32377;52.182;5.398;2023-07-09T04:52:30;22.70;99.90
46652;DHT22;32377;52.182;5.398;2023-07-09T04:54:56;22.70;99.90
46652;DHT22;32377;52.182;5.398;2023-07-09T04:57:22;22.80;99.90
46652;DHT22;32377;52.182;5.398;2023-07-09T04:59:48;22.80;99.90
46652;DHT22;32377;52.182;5.398;2023-07-09T05:02:14;22.90;99.90
46652;DHT22;32377;52.182;5.398;2023-07-09T05:04:40;22.90;99.90
46652;DHT22;32377;52.182;5.398;2023-07-09T05:07:06;23.00;99.90
46652;DHT22;32377;52.182;5.398;2023-07-09T05:09:32;23.00;99.90
46652;DHT22;32377;52.182;5.398;2023-07-09T05:11:59;23.00;99.90
46652;DHT22;32377;52.182;5.398;2023-07-09T05:14:26;23.00;99.90
46652;DHT22;32377;52.182;5.398;2023-07-09T05:16:53;23.10;99.90
46652;DHT22;32377;52.182;5.398;2023-07-09T05:19:18;23.10;99.90
46652;DHT22;32377;52.182;5.398;2023-07-09T05:21:44;23.20;99.90
46652;DHT22;32377;52.182;5.398;2023-07-09T05:24:10;23.40;99.90
46652;DHT22;32377;52.182;5.398;2023-07-09T05:26:36;23.40;99.90
46652;DHT22;32377;52.182;5.398;2023-07-09T05:29:03;23.40;99.90
46652;DHT22;32377;52.182;5.398;2023-07-09T05:31:30;23.50;99.90
46652;DHT22;32377;52.182;5.398;2023-07-09T05:33:55;23.70;99.90
46652;DHT22;32377;52.182;5.398;2023-07-09T05:36:21;23.80;99.90
46652;DHT22;32377;52.182;5.398;2023-07-09T05:38:47;24.00;99.90
46652;DHT22;32377;52.182;5.398;2023-07-09T05:41:13;24.10;99.90
46652;DHT22;32377;52.182;5.398;2023-07-09T05:43:42;24.30;99.90
46652;DHT22;32377;52.182;5.398;2023-07-09T05:46:08;24.50;99.90
46652;DHT22;32377;52.182;5.398;2023-07-09T05:48:34;24.60;99.90
46652;DHT22;32377;52.182;5.398;2023-07-09T05:51:00;24.80;99.90
46652;DHT22;32377;52.182;5.398;2023-07-09T05:53:25;25.00;99.90
46652;DHT22;32377;52.182;5.398;2023-07-09T05:55:57;25.10;99.90
46652;DHT22;32377;52.182;5.398;2023-07-09T05:58:23;25.20;99.90
46652;DHT22;32377;52.182;5.398;2023-07-09T06:00:52;25.30;99.90
46652;DHT22;32377;52.182;5.398;2023-07-09T06:03:24;25.40;99.90
46652;DHT22;32377;52.182;5.398;2023-07-09T06:05:50;25.40;99.90
46652;DHT22;32377;52.182;5.398;2023-07-09T06:08:18;25.50;99.90
46652;DHT22;32377;52.182;5.398;2023-07-09T06:11:10;25.60;99.90
46652;DHT22;32377;52.182;5.398;2023-07-09T06:13:35;25.60;99.90
46652;DHT22;32377;52.182;5.398;2023-07-09T06:16:01;25.60;99.90
46652;DHT22;32377;52.182;5.398;2023-07-09T06:18:27;25.60;99.90
46652;DHT22;32377;52.182;5.398;2023-07-09T06:20:59;25.70;99.90
46652;DHT22;32377;52.182;5.398;2023-07-09T06:23:25;25.70;99.90
46652;DHT22;32377;52.182;5.398;2023-07-09T06:25:51;25.80;99.90
46652;DHT22;32377;52.182;5.398;2023-07-09T06:28:23;25.80;99.90
46652;DHT22;32377;52.182;5.398;2023-07-09T06:30:49;25.80;99.90
46652;DHT22;32377;52.182;5.398;2023-07-09T06:33:16;25.90;99.90
46652;DHT22;32377;52.182;5.398;2023-07-09T06:35:50;26.10;99.90
46652;DHT22;32377;52.182;5.398;2023-07-09T06:38:17;26.20;99.90
46652;DHT22;32377;52.182;5.398;2023-07-09T06:40:43;26.50;99.90
46652;DHT22;32377;52.182;5.398;2023-07-09T06:43:09;26.60;99.90
46652;DHT22;32377;52.182;5.398;2023-07-09T06:45:34;26.60;99.90
46652;DHT22;32377;52.182;5.398;2023-07-09T06:48:00;26.70;99.90
46652;DHT22;32377;52.182;5.398;2023-07-09T06:50:26;26.80;99.90
46652;DHT22;32377;52.182;5.398;2023-07-09T06:52:51;26.90;99.90
46652;DHT22;32377;52.182;5.398;2023-07-09T06:55:17;27.00;99.90
46652;DHT22;32377;52.182;5.398;2023-07-09T06:57:43;27.10;99.90
46652;DHT22;32377;52.182;5.398;2023-07-09T07:00:09;27.40;99.90
46652;DHT22;32377;52.182;5.398;2023-07-09T07:02:35;27.40;99.90
46652;DHT22;32377;52.182;5.398;2023-07-09T07:05:00;27.50;99.90
46652;DHT22;32377;52.182;5.398;2023-07-09T07:07:26;27.70;99.90
46652;DHT22;32377;52.182;5.398;2023-07-09T07:09:52;27.80;99.90
46652;DHT22;32377;52.182;5.398;2023-07-09T07:12:28;27.90;99.90
46652;DHT22;32377;52.182;5.398;2023-07-09T07:14:55;28.00;99.90
46652;DHT22;32377;52.182;5.398;2023-07-09T07:17:21;28.30;99.90
46652;DHT22;32377;52.182;5.398;2023-07-09T07:19:50;28.40;99.90
46652;DHT22;32377;52.182;5.398;2023-07-09T07:22:16;28.50;99.90
46652;DHT22;32377;52.182;5.398;2023-07-09T07:24:42;28.60;99.90
46652;DHT22;32377;52.182;5.398;2023-07-09T07:27:08;28.60;99.90
46652;DHT22;32377;52.182;5.398;2023-07-09T07:29:34;28.60;99.90
46652;DHT22;32377;52.182;5.398;2023-07-09T07:31:59;28.70;99.90
46652;DHT22;32377;52.182;5.398;2023-07-09T07:34:26;28.70;99.90
46652;DHT22;32377;52.182;5.398;2023-07-09T07:36:51;28.90;99.90
46652;DHT22;32377;52.182;5.398;2023-07-09T07:39:17;29.00;99.90
46652;DHT22;32377;52.182;5.398;2023-07-09T07:41:43;29.00;99.90
46652;DHT22;32377;52.182;5.398;2023-07-09T07:44:09;28.90;99.90
46652;DHT22;32377;52.182;5.398;2023-07-09T07:46:34;29.00;99.90
46652;DHT22;32377;52.182;5.398;2023-07-09T07:49:00;29.10;99.90
46652;DHT22;32377;52.182;5.398;2023-07-09T07:51:26;29.10;99.90
46652;DHT22;32377;52.182;5.398;2023-07-09T07:53:52;29.10;99.90
46652;DHT22;32377;52.182;5.398;2023-07-09T07:56:18;29.20;99.90
46652;DHT22;32377;52.182;5.398;2023-07-09T07:58:43;29.30;99.90
46652;DHT22;32377;52.182;5.398;2023-07-09T08:01:09;29.50;99.90
46652;DHT22;32377;52.182;5.398;2023-07-09T08:03:35;29.60;99.90
46652;DHT22;32377;52.182;5.398;2023-07-09T08:06:00;29.60;99.80
46652;DHT22;32377;52.182;5.398;2023-07-09T08:08:26;29.70;99.90
46652;DHT22;32377;52.182;5.398;2023-07-09T08:11:00;29.80;99.70
46652;DHT22;32377;52.182;5.398;2023-07-09T08:13:26;29.70;99.90
46652;DHT22;32377;52.182;5.398;2023-07-09T08:15:52;29.80;99.90
46652;DHT22;32377;52.182;5.398;2023-07-09T08:18:17;29.90;98.90
46652;DHT22;32377;52.182;5.398;2023-07-09T08:20:44;30.00;99.80
46652;DHT22;32377;52.182;5.398;2023-07-09T08:23:10;30.10;98.40
46652;DHT22;32377;52.182;5.398;2023-07-09T08:25:35;30.10;97.90
46652;DHT22;32377;52.182;5.398;2023-07-09T08:28:01;30.00;97.50
46652;DHT22;32377;52.182;5.398;2023-07-09T08:30:27;30.00;99.80
46652;DHT22;32377;52.182;5.398;2023-07-09T08:32:52;29.80;99.90
46652;DHT22;32377;52.182;5.398;2023-07-09T08:35:18;29.60;99.90
46652;DHT22;32377;52.182;5.398;2023-07-09T08:37:44;29.40;99.90
46652;DHT22;32377;52.182;5.398;2023-07-09T08:40:13;29.20;99.90
46652;DHT22;32377;52.182;5.398;2023-07-09T08:42:44;29.20;99.90
46652;DHT22;32377;52.182;5.398;2023-07-09T08:45:34;29.30;99.90
46652;DHT22;32377;52.182;5.398;2023-07-09T08:48:20;29.40;99.90
46652;DHT22;32377;52.182;5.398;2023-07-09T08:50:57;29.40;99.90
46652;DHT22;32377;52.182;5.398;2023-07-09T08:53:52;29.60;99.90
46652;DHT22;32377;52.182;5.398;2023-07-09T08:56:19;29.50;99.90
46652;DHT22;32377;52.182;5.398;2023-07-09T08:58:46;29.30;99.90
46652;DHT22;32377;52.182;5.398;2023-07-09T09:01:23;29.30;99.90
46652;DHT22;32377;52.182;5.398;2023-07-09T09:03:52;29.30;99.90
46652;DHT22;32377;52.182;5.398;2023-07-09T09:06:26;29.30;99.90
46652;DHT22;32377;52.182;5.398;2023-07-09T09:11:43;29.40;99.90
46652;DHT22;32377;52.182;5.398;2023-07-09T09:14:32;29.50;99.90
46652;DHT22;32377;52.182;5.398;2023-07-09T09:16:58;29.60;99.90
46652;DHT22;32377;52.182;5.398;2023-07-09T09:22:01;29.40;99.90
46652;DHT22;32377;52.182;5.398;2023-07-09T09:24:35;29.70;99.90
46652;DHT22;32377;52.182;5.398;2023-07-09T09:27:02;29.80;99.90
46652;DHT22;32377;52.182;5.398;2023-07-09T09:29:27;29.90;99.90
46652;DHT22;32377;52.182;5.398;2023-07-09T09:31:57;29.90;99.90
46652;DHT22;32377;52.182;5.398;2023-07-09T09:34:29;29.80;99.90
46652;DHT22;32377;52.182;5.398;2023-07-09T09:36:56;29.80;99.90
46652;DHT22;32377;52.182;5.398;2023-07-09T09:39:24;29.80;99.90
46652;DHT22;32377;52.182;5.398;2023-07-09T09:41:57;29.70;99.90
46652;DHT22;32377;52.182;5.398;2023-07-09T09:44:27;29.80;99.90
46652;DHT22;32377;52.182;5.398;2023-07-09T09:46:56;29.90;99.90
46652;DHT22;32377;52.182;5.398;2023-07-09T09:49:22;29.80;99.90
46652;DHT22;32377;52.182;5.398;2023-07-09T09:51:48;29.70;99.90
46652;DHT22;32377;52.182;5.398;2023-07-09T09:54:21;29.50;99.90
46652;DHT22;32377;52.182;5.398;2023-07-09T09:58:52;29.60;99.90
46652;DHT22;32377;52.182;5.398;2023-07-09T10:01:18;29.80;99.90
46652;DHT22;32377;52.182;5.398;2023-07-09T10:03:47;30.00;99.90
46652;DHT22;32377;52.182;5.398;2023-07-09T10:06:25;30.10;99.90
46652;DHT22;32377;52.182;5.398;2023-07-09T10:09:20;30.20;99.90
46652;DHT22;32377;52.182;5.398;2023-07-09T10:20:46;30.30;99.90
46652;DHT22;32377;52.182;5.398;2023-07-09T10:23:30;30.40;99.90
46652;DHT22;32377;52.182;5.398;2023-07-09T10:26:09;30.60;99.90
46652;DHT22;32377;52.182;5.398;2023-07-09T10:31:31;30.90;99.90
46652;DHT22;32377;52.182;5.398;2023-07-09T10:34:49;31.00;99.90
46652;DHT22;32377;52.182;5.398;2023-07-09T10:37:08;31.10;99.90
46652;DHT22;32377;52.182;5.398;2023-07-09T10:39:59;31.10;99.90
46652;DHT22;32377;52.182;5.398;2023-07-09T10:42:37;30.90;99.90
46652;DHT22;32377;52.182;5.398;2023-07-09T10:45:15;31.20;99.90
46652;DHT22;32377;52.182;5.398;2023-07-09T10:47:47;31.30;99.50
46652;DHT22;32377;52.182;5.398;2023-07-09T10:50:35;31.30;99.60
46652;DHT22;32377;52.182;5.398;2023-07-09T10:53:28;31.20;99.30
46652;DHT22;32377;52.182;5.398;2023-07-09T10:56:02;31.30;99.70
46652;DHT22;32377;52.182;5.398;2023-07-09T10:58:44;31.50;99.20
46652;DHT22;32377;52.182;5.398;2023-07-09T11:01:13;31.50;99.30
46652;DHT22;32377;52.182;5.398;2023-07-09T11:03:44;31.70;98.90
46652;DHT22;32377;52.182;5.398;2023-07-09T11:06:23;31.70;99.00
46652;DHT22;32377;52.182;5.398;2023-07-09T11:08:54;31.70;98.90
46652;DHT22;32377;52.182;5.398;2023-07-09T11:11:30;31.50;99.00
46652;DHT22;32377;52.182;5.398;2023-07-09T11:14:02;31.20;99.30
46652;DHT22;32377;52.182;5.398;2023-07-09T11:16:38;31.00;99.20
46652;DHT22;32377;52.182;5.398;2023-07-09T11:19:05;30.90;99.50
46652;DHT22;32377;52.182;5.398;2023-07-09T11:21:32;31.00;99.40
46652;DHT22;32377;52.182;5.398;2023-07-09T11:24:01;30.80;99.40
46652;DHT22;32377;52.182;5.398;2023-07-09T11:26:29;30.60;98.30
46652;DHT22;32377;52.182;5.398;2023-07-09T11:29:09;30.50;98.50
46652;DHT22;32377;52.182;5.398;2023-07-09T11:31:45;30.70;99.00
46652;DHT22;32377;52.182;5.398;2023-07-09T11:36:59;30.90;99.00
46652;DHT22;32377;52.182;5.398;2023-07-09T11:42:01;31.10;99.00
46652;DHT22;32377;52.182;5.398;2023-07-09T11:44:30;31.10;99.10
46652;DHT22;32377;52.182;5.398;2023-07-09T11:47:21;31.10;99.10
46652;DHT22;32377;52.182;5.398;2023-07-09T11:49:59;31.10;98.90
46652;DHT22;32377;52.182;5.398;2023-07-09T11:55:40;31.00;98.20
46652;DHT22;32377;52.182;5.398;2023-07-09T11:58:12;31.00;98.10
46652;DHT22;32377;52.182;5.398;2023-07-09T12:00:40;30.80;97.80
46652;DHT22;32377;52.182;5.398;2023-07-09T12:03:10;30.60;97.70
46652;DHT22;32377;52.182;5.398;2023-07-09T12:05:37;30.60;98.00
46652;DHT22;32377;52.182;5.398;2023-07-09T12:08:06;30.90;97.60
46652;DHT22;32377;52.182;5.398;2023-07-09T12:10:34;30.80;98.20
46652;DHT22;32377;52.182;5.398;2023-07-09T12:13:01;30.80;97.90
46652;DHT22;32377;52.182;5.398;2023-07-09T12:15:29;30.70;97.50
46652;DHT22;32377;52.182;5.398;2023-07-09T12:18:02;30.60;98.60
46652;DHT22;32377;52.182;5.398;2023-07-09T12:20:31;30.20;98.40
46652;DHT22;32377;52.182;5.398;2023-07-09T12:22:59;30.00;98.40
46652;DHT22;32377;52.182;5.398;2023-07-09T12:25:27;30.00;98.00
46652;DHT22;32377;52.182;5.398;2023-07-09T12:27:55;29.90;98.90
46652;DHT22;32377;52.182;5.398;2023-07-09T12:30:21;29.80;98.80
46652;DHT22;32377;52.182;5.398;2023-07-09T12:32:49;29.90;98.40
46652;DHT22;32377;52.182;5.398;2023-07-09T12:35:17;29.70;98.20
46652;DHT22;32377;52.182;5.398;2023-07-09T12:37:44;29.50;98.50
46652;DHT22;32377;52.182;5.398;2023-07-09T12:40:18;29.40;99.20
46652;DHT22;32377;52.182;5.398;2023-07-09T12:42:45;29.30;99.70
46652;DHT22;32377;52.182;5.398;2023-07-09T12:45:16;29.10;99.90
46652;DHT22;32377;52.182;5.398;2023-07-09T12:47:43;29.20;99.90
46652;DHT22;32377;52.182;5.398;2023-07-09T12:52:49;29.40;99.20
46652;DHT22;32377;52.182;5.398;2023-07-09T12:55:23;29.70;99.30
46652;DHT22;32377;52.182;5.398;2023-07-09T12:57:49;29.60;99.10
46652;DHT22;32377;52.182;5.398;2023-07-09T13:00:16;29.40;99.50
46652;DHT22;32377;52.182;5.398;2023-07-09T13:02:43;29.40;99.20
46652;DHT22;32377;52.182;5.398;2023-07-09T13:05:23;29.40;98.80
46652;DHT22;32377;52.182;5.398;2023-07-09T13:08:00;29.60;98.50
46652;DHT22;32377;52.182;5.398;2023-07-09T13:10:40;29.70;98.40
46652;DHT22;32377;52.182;5.398;2023-07-09T13:13:10;30.00;99.00
46652;DHT22;32377;52.182;5.398;2023-07-09T13:18:03;30.00;97.10
46652;DHT22;32377;52.182;5.398;2023-07-09T13:20:31;29.70;97.00
46652;DHT22;32377;52.182;5.398;2023-07-09T13:22:58;29.80;97.50
46652;DHT22;32377;52.182;5.398;2023-07-09T13:25:24;29.70;98.10
46652;DHT22;32377;52.182;5.398;2023-07-09T13:27:49;29.60;98.10
46652;DHT22;32377;52.182;5.398;2023-07-09T13:30:15;29.40;97.70
46652;DHT22;32377;52.182;5.398;2023-07-09T13:32:41;29.40;97.60
46652;DHT22;32377;52.182;5.398;2023-07-09T13:35:16;29.30;97.00
46652;DHT22;32377;52.182;5.398;2023-07-09T13:37:47;29.20;97.50
46652;DHT22;32377;52.182;5.398;2023-07-09T13:40:15;29.30;96.80
46652;DHT22;32377;52.182;5.398;2023-07-09T13:42:42;29.30;96.60
46652;DHT22;32377;52.182;5.398;2023-07-09T13:45:20;29.10;96.20
46652;DHT22;32377;52.182;5.398;2023-07-09T13:47:48;29.00;96.40
46652;DHT22;32377;52.182;5.398;2023-07-09T13:50:16;28.90;96.90
46652;DHT22;32377;52.182;5.398;2023-07-09T13:52:42;28.90;97.10
46652;DHT22;32377;52.182;5.398;2023-07-09T13:55:16;28.70;97.10
46652;DHT22;32377;52.182;5.398;2023-07-09T13:57:42;28.70;97.20
46652;DHT22;32377;52.182;5.398;2023-07-09T14:00:11;28.80;97.60
46652;DHT22;32377;52.182;5.398;2023-07-09T14:02:37;28.80;97.50
46652;DHT22;32377;52.182;5.398;2023-07-09T14:05:05;28.40;98.30
46652;DHT22;32377;52.182;5.398;2023-07-09T14:07:33;28.00;99.20
46652;DHT22;32377;52.182;5.398;2023-07-09T14:10:00;27.70;99.90
46652;DHT22;32377;52.182;5.398;2023-07-09T14:12:27;27.30;99.90
46652;DHT22;32377;52.182;5.398;2023-07-09T14:14:55;27.00;99.90
46652;DHT22;32377;52.182;5.398;2023-07-09T14:17:22;26.60;99.90
46652;DHT22;32377;52.182;5.398;2023-07-09T14:19:48;26.40;99.90
46652;DHT22;32377;52.182;5.398;2023-07-09T14:22:30;26.00;99.90
46652;DHT22;32377;52.182;5.398;2023-07-09T14:24:57;25.90;99.90
46652;DHT22;32377;52.182;5.398;2023-07-09T14:27:23;25.80;99.90
46652;DHT22;32377;52.182;5.398;2023-07-09T14:29:48;25.40;99.90
46652;DHT22;32377;52.182;5.398;2023-07-09T14:32:37;25.30;99.90
46652;DHT22;32377;52.182;5.398;2023-07-09T14:35:12;25.00;99.90
46652;DHT22;32377;52.182;5.398;2023-07-09T14:37:37;25.00;99.90
46652;DHT22;32377;52.182;5.398;2023-07-09T14:40:04;25.00;99.90
46652;DHT22;32377;52.182;5.398;2023-07-09T14:42:30;24.90;99.90
46652;DHT22;32377;52.182;5.398;2023-07-09T14:44:56;24.70;99.90
46652;DHT22;32377;52.182;5.398;2023-07-09T14:47:22;24.60;99.90
46652;DHT22;32377;52.182;5.398;2023-07-09T14:49:48;24.50;99.90
46652;DHT22;32377;52.182;5.398;2023-07-09T14:52:17;24.40;99.90
46652;DHT22;32377;52.182;5.398;2023-07-09T14:54:45;24.40;99.90
46652;DHT22;32377;52.182;5.398;2023-07-09T14:57:21;24.40;99.90
46652;DHT22;32377;52.182;5.398;2023-07-09T14:59:48;24.50;99.90
46652;DHT22;32377;52.182;5.398;2023-07-09T15:02:34;24.30;99.90
46652;DHT22;32377;52.182;5.398;2023-07-09T15:05:01;23.50;99.90
46652;DHT22;32377;52.182;5.398;2023-07-09T15:07:27;22.90;99.90
46652;DHT22;32377;52.182;5.398;2023-07-09T15:09:56;22.70;99.90
46652;DHT22;32377;52.182;5.398;2023-07-09T15:12:30;22.40;99.90
46652;DHT22;32377;52.182;5.398;2023-07-09T15:17:37;22.10;99.90
46652;DHT22;32377;52.182;5.398;2023-07-09T15:20:03;22.30;99.90
46652;DHT22;32377;52.182;5.398;2023-07-09T15:22:33;22.50;99.90
46652;DHT22;32377;52.182;5.398;2023-07-09T15:24:59;22.50;99.90
46652;DHT22;32377;52.182;5.398;2023-07-09T15:27:25;22.50;99.90
46652;DHT22;32377;52.182;5.398;2023-07-09T15:29:51;22.30;99.90
46652;DHT22;32377;52.182;5.398;2023-07-09T15:32:17;22.30;99.90
46652;DHT22;32377;52.182;5.398;2023-07-09T15:34:42;22.20;99.90
46652;DHT22;32377;52.182;5.398;2023-07-09T15:37:13;22.20;99.90
46652;DHT22;32377;52.182;5.398;2023-07-09T15:39:40;22.30;99.90
46652;DHT22;32377;52.182;5.398;2023-07-09T15:42:13;22.50;99.90
46652;DHT22;32377;52.182;5.398;2023-07-09T15:44:40;22.40;99.90
46652;DHT22;32377;52.182;5.398;2023-07-09T15:47:08;22.40;99.90
46652;DHT22;32377;52.182;5.398;2023-07-09T15:49:40;22.40;99.90
46652;DHT22;32377;52.182;5.398;2023-07-09T15:52:08;22.50;99.90
46652;DHT22;32377;52.182;5.398;2023-07-09T15:54:33;22.50;99.90
46652;DHT22;32377;52.182;5.398;2023-07-09T15:58:48;22.20;99.90
46652;DHT22;32377;52.182;5.398;2023-07-09T16:01:17;22.20;99.90
46652;DHT22;32377;52.182;5.398;2023-07-09T16:03:46;22.00;99.90
46652;DHT22;32377;52.182;5.398;2023-07-09T16:06:13;22.00;99.90
46652;DHT22;32377;52.182;5.398;2023-07-09T16:08:39;22.00;99.90
46652;DHT22;32377;52.182;5.398;2023-07-09T16:13:37;22.00;99.90
46652;DHT22;32377;52.182;5.398;2023-07-09T16:16:04;22.00;99.90
46652;DHT22;32377;52.182;5.398;2023-07-09T16:18:29;21.90;99.90
46652;DHT22;32377;52.182;5.398;2023-07-09T16:20:55;21.90;99.90
46652;DHT22;32377;52.182;5.398;2023-07-09T16:23:21;21.90;99.90
46652;DHT22;32377;52.182;5.398;2023-07-09T16:25:49;21.90;99.90
46652;DHT22;32377;52.182;5.398;2023-07-09T16:28:17;21.90;99.90
46652;DHT22;32377;52.182;5.398;2023-07-09T16:30:45;21.90;99.90